sensor_id;sensor_type;location;lat;lon;timestamp;temperature;humidity
6098;DHT22;3077;50.922;6.584;2022-12-18T00:01:53;-4.80;1.00
6098;DHT22;3077;50.922;6.584;2022-12-18T00:04:22;-4.70;1.00
6098;DHT22;3077;50.922;6.584;2022-12-18T00:09:14;-5.10;1.00
6098;DHT22;3077;50.922;6.584;2022-12-18T00:11:40;-5.30;1.00
6098;DHT22;3077;50.922;6.584;2022-12-18T00:14:06;-5.20;1.00
6098;DHT22;3077;50.922;6.584;2022-12-18T00:16:31;-5.20;1.00
6098;DHT22;3077;50.922;6.584;2022-12-18T00:18:59;-5.10;1.00
6098;DHT22;3077;50.922;6.584;2022-12-18T00:21:26;-5.30;1.00
6098;DHT22;3077;50.922;6.584;2022-12-18T00:23:52;-5.20;1.00
6098;DHT22;3077;50.922;6.584;2022-12-18T00:26:23;-5.50;1.00
6098;DHT22;3077;50.922;6.584;2022-12-18T00:28:50;-5.40;1.00
6098;DHT22;3077;50.922;6.584;2022-12-18T00:31:20;-5.10;1.00
6098;DHT22;3077;50.922;6.584;2022-12-18T00:36:15;-5.10;1.00
6098;DHT22;3077;50.922;6.584;2022-12-18T00:38:41;-5.10;1.00
6098;DHT22;3077;50.922;6.584;2022-12-18T00:41:08;-5.60;1.00
6098;DHT22;3077;50.922;6.584;2022-12-18T00:43:34;-5.60;1.00
6098;DHT22;3077;50.922;6.584;2022-12-18T01:00:37;-6.20;1.00
6098;DHT22;3077;50.922;6.584;2022-12-18T01:03:03;-5.50;1.00
6098;DHT22;3077;50.922;6.584;2022-12-18T01:10:21;-5.60;1.00
6098;DHT22;3077;50.922;6.584;2022-12-18T01:15:14;-5.30;1.00
6098;DHT22;3077;50.922;6.584;2022-12-18T01:20:06;-5.30;1.00
6098;DHT22;3077;50.922;6.584;2022-12-18T01:42:02;-5.40;1.00
6098;DHT22;3077;50.922;6.584;2022-12-18T01:44:59;-5.30;1.00
6098;DHT22;3077;50.922;6.584;2022-12-18T01:49:51;-5.50;1.00
6098;DHT22;3077;50.922;6.584;2022-12-18T01:52:18;-5.40;1.00
6098;DHT22;3077;50.922;6.584;2022-12-18T01:54:46;-5.40;1.00
6098;DHT22;3077;50.922;6.584;2022-12-18T01:59:39;-5.40;1.00
6098;DHT22;3077;50.922;6.584;2022-12-18T02:02:07;-5.40;1.00
6098;DHT22;3077;50.922;6.584;2022-12-18T02:07:17;-5.50;1.00
6098;DHT22;3077;50.922;6.584;2022-12-18T02:09:53;-5.40;1.00
6098;DHT22;3077;50.922;6.584;2022-12-18T02:12:23;-5.00;1.00
6098;DHT22;3077;50.922;6.584;2022-12-18T02:15:00;-5.50;1.00
6098;DHT22;3077;50.922;6.584;2022-12-18T02:17:56;-5.60;1.00
6098;DHT22;3077;50.922;6.584;2022-12-18T02:20:44;-5.40;1.00
6098;DHT22;3077;50.922;6.584;2022-12-18T02:23:45;-5.40;1.00
6098;DHT22;3077;50.922;6.584;2022-12-18T02:28:42;-5.50;1.00
6098;DHT22;3077;50.922;6.584;2022-12-18T02:31:13;-5.50;1.00
6098;DHT22;3077;50.922;6.584;2022-12-18T02:36:06;-5.50;1.00
6098;DHT22;3077;50.922;6.584;2022-12-18T02:43:26;-5.70;1.00
6098;DHT22;3077;50.922;6.584;2022-12-18T02:45:57;-5.40;1.00
6098;DHT22;3077;50.922;6.584;2022-12-18T02:48:27;-5.40;1.00
6098;DHT22;3077;50.922;6.584;2022-12-18T02:53:45;-5.30;1.00
6098;DHT22;3077;50.922;6.584;2022-12-18T02:56:23;-5.30;1.00
6098;DHT22;3077;50.922;6.584;2022-12-18T03:06:44;-5.50;1.00
6098;DHT22;3077;50.922;6.584;2022-12-18T03:09:16;-7.00;1.00
6098;DHT22;3077;50.922;6.584;2022-12-18T03:11:48;-5.40;1.00
6098;DHT22;3077;50.922;6.584;2022-12-18T03:17:02;-5.40;1.00
6098;DHT22;3077;50.922;6.584;2022-12-18T03:19:32;-5.50;1.00
6098;DHT22;3077;50.922;6.584;2022-12-18T03:22:00;-5.40;1.00
6098;DHT22;3077;50.922;6.584;2022-12-18T03:24:29;-5.40;1.00
6098;DHT22;3077;50.922;6.584;2022-12-18T03:27:00;-5.50;1.00
6098;DHT22;3077;50.922;6.584;2022-12-18T03:29:38;-5.40;1.00
6098;DHT22;3077;50.922;6.584;2022-12-18T03:32:09;-5.40;1.00
6098;DHT22;3077;50.922;6.584;2022-12-18T03:34:38;-5.40;1.00
6098;DHT22;3077;50.922;6.584;2022-12-18T03:37:06;-5.30;1.00
6098;DHT22;3077;50.922;6.584;2022-12-18T03:39:32;-5.40;1.00
6098;DHT22;3077;50.922;6.584;2022-12-18T03:44:57;-6.50;1.00
6098;DHT22;3077;50.922;6.584;2022-12-18T03:47:38;-5.60;1.00
6098;DHT22;3077;50.922;6.584;2022-12-18T03:50:27;-3.20;1.00
6098;DHT22;3077;50.922;6.584;2022-12-18T03:55:25;-5.60;1.00
6098;DHT22;3077;50.922;6.584;2022-12-18T03:57:54;-5.50;1.00
6098;DHT22;3077;50.922;6.584;2022-12-18T04:02:51;-5.50;1.00
6098;DHT22;3077;50.922;6.584;2022-12-18T04:05:17;-5.50;1.00
6098;DHT22;3077;50.922;6.584;2022-12-18T04:07:47;-5.50;1.00
6098;DHT22;3077;50.922;6.584;2022-12-18T04:10:13;-5.40;1.00
6098;DHT22;3077;50.922;6.584;2022-12-18T04:12:39;-5.50;1.00
6098;DHT22;3077;50.922;6.584;2022-12-18T04:15:06;-5.30;1.00
6098;DHT22;3077;50.922;6.584;2022-12-18T04:17:31;-5.60;1.00
6098;DHT22;3077;50.922;6.584;2022-12-18T04:54:04;-5.40;1.00
6098;DHT22;3077;50.922;6.584;2022-12-18T04:56:31;-5.10;1.00
6098;DHT22;3077;50.922;6.584;2022-12-18T05:11:09;-5.30;1.00
6098;DHT22;3077;50.922;6.584;2022-12-18T05:16:02;-5.40;1.00
6098;DHT22;3077;50.922;6.584;2022-12-18T05:18:28;-4.90;1.00
6098;DHT22;3077;50.922;6.584;2022-12-18T05:20:54;-5.80;1.00
6098;DHT22;3077;50.922;6.584;2022-12-18T05:23:21;-5.30;1.00
6098;DHT22;3077;50.922;6.584;2022-12-18T05:25:59;-5.70;1.00
6098;DHT22;3077;50.922;6.584;2022-12-18T05:28:27;-5.30;1.00
6098;DHT22;3077;50.922;6.584;2022-12-18T05:30:55;-5.30;1.00
6098;DHT22;3077;50.922;6.584;2022-12-18T05:33:23;-7.60;1.00
6098;DHT22;3077;50.922;6.584;2022-12-18T05:35:54;-5.20;1.00
6098;DHT22;3077;50.922;6.584;2022-12-18T05:38:21;-5.20;1.00
6098;DHT22;3077;50.922;6.584;2022-12-18T05:40:50;-5.00;1.00
6098;DHT22;3077;50.922;6.584;2022-12-18T05:43:17;-5.20;1.00
6098;DHT22;3077;50.922;6.584;2022-12-18T05:45:44;-5.10;1.00
6098;DHT22;3077;50.922;6.584;2022-12-18T05:48:09;-5.10;1.00
6098;DHT22;3077;50.922;6.584;2022-12-18T05:50:36;-5.20;1.00
6098;DHT22;3077;50.922;6.584;2022-12-18T05:53:03;-5.10;1.00
6098;DHT22;3077;50.922;6.584;2022-12-18T06:10:06;-5.20;1.00
6098;DHT22;3077;50.922;6.584;2022-12-18T06:17:28;-5.30;1.00
6098;DHT22;3077;50.922;6.584;2022-12-18T06:29:39;-5.00;1.00
6098;DHT22;3077;50.922;6.584;2022-12-18T06:34:31;-5.20;1.00
6098;DHT22;3077;50.922;6.584;2022-12-18T06:36:58;-4.70;1.00
6098;DHT22;3077;50.922;6.584;2022-12-18T06:39:23;-5.00;1.00
6098;DHT22;3077;50.922;6.584;2022-12-18T06:44:15;-5.20;1.00
6098;DHT22;3077;50.922;6.584;2022-12-18T06:51:34;-5.10;4.40
6098;DHT22;3077;50.922;6.584;2022-12-18T06:58:52;-5.60;1.00
6098;DHT22;3077;50.922;6.584;2022-12-18T07:03:44;-5.50;1.00
6098;DHT22;3077;50.922;6.584;2022-12-18T07:06:18;-4.80;1.00
6098;DHT22;3077;50.922;6.584;2022-12-18T07:08:45;-5.00;1.00
6098;DHT22;3077;50.922;6.584;2022-12-18T07:11:11;-4.90;1.00
6098;DHT22;3077;50.922;6.584;2022-12-18T07:16:05;-4.90;1.00
6098;DHT22;3077;50.922;6.584;2022-12-18T07:18:30;-4.90;2.20
6098;DHT22;3077;50.922;6.584;2022-12-18T07:35:33;-4.90;1.00
6098;DHT22;3077;50.922;6.584;2022-12-18T07:38:01;-5.00;1.00
6098;DHT22;3077;50.922;6.584;2022-12-18T07:40:27;-5.20;1.00
6098;DHT22;3077;50.922;6.584;2022-12-18T07:50:10;-4.90;1.00
6098;DHT22;3077;50.922;6.584;2022-12-18T08:38:52;-3.70;1.00
6098;DHT22;3077;50.922;6.584;2022-12-18T08:41:18;-3.60;1.00
6098;DHT22;3077;50.922;6.584;2022-12-18T08:43:44;-3.60;1.00
6098;DHT22;3077;50.922;6.584;2022-12-18T08:46:37;-3.60;1.00
6098;DHT22;3077;50.922;6.584;2022-12-18T08:49:04;-3.40;1.00
6098;DHT22;3077;50.922;6.584;2022-12-18T08:58:47;-3.20;1.00
6098;DHT22;3077;50.922;6.584;2022-12-18T09:08:34;-2.80;1.00
6098;DHT22;3077;50.922;6.584;2022-12-18T09:10:59;-2.80;99.90
6098;DHT22;3077;50.922;6.584;2022-12-18T09:15:53;-2.80;1.00
6098;DHT22;3077;50.922;6.584;2022-12-18T09:18:21;-2.70;99.90
6098;DHT22;3077;50.922;6.584;2022-12-18T09:20:47;-2.60;99.90
6098;DHT22;3077;50.922;6.584;2022-12-18T09:25:39;-2.50;99.90
6098;DHT22;3077;50.922;6.584;2022-12-18T09:28:10;-2.40;99.90
6098;DHT22;3077;50.922;6.584;2022-12-18T09:30:40;-2.30;99.90
6098;DHT22;3077;50.922;6.584;2022-12-18T09:33:06;-2.30;99.90
6098;DHT22;3077;50.922;6.584;2022-12-18T09:35:32;-2.20;99.90
6098;DHT22;3077;50.922;6.584;2022-12-18T09:40:25;-2.00;1.00
6098;DHT22;3077;50.922;6.584;2022-12-18T09:42:58;-4.20;99.90
6098;DHT22;3077;50.922;6.584;2022-12-18T09:45:25;-1.70;99.90
6098;DHT22;3077;50.922;6.584;2022-12-18T09:47:52;-2.40;99.90
6098;DHT22;3077;50.922;6.584;2022-12-18T09:50:37;-1.70;99.90
6098;DHT22;3077;50.922;6.584;2022-12-18T09:53:10;-1.60;1.00
6098;DHT22;3077;50.922;6.584;2022-12-18T09:55:41;-1.60;99.90
6098;DHT22;3077;50.922;6.584;2022-12-18T10:00:38;-1.40;1.00
6098;DHT22;3077;50.922;6.584;2022-12-18T10:03:12;-1.30;1.00
6098;DHT22;3077;50.922;6.584;2022-12-18T10:08:44;-1.40;1.00
6098;DHT22;3077;50.922;6.584;2022-12-18T10:11:31;-1.30;99.90
6098;DHT22;3077;50.922;6.584;2022-12-18T10:16:39;-0.70;27.50
6098;DHT22;3077;50.922;6.584;2022-12-18T10:19:25;-0.70;99.90
6098;DHT22;3077;50.922;6.584;2022-12-18T10:27:16;-0.50;99.90
6098;DHT22;3077;50.922;6.584;2022-12-18T10:29:44;-0.40;80.80
6098;DHT22;3077;50.922;6.584;2022-12-18T10:32:27;-0.40;4.50
6098;DHT22;3077;50.922;6.584;2022-12-18T10:34:55;-0.40;1.00
6098;DHT22;3077;50.922;6.584;2022-12-18T10:37:26;-0.10;19.90
6098;DHT22;3077;50.922;6.584;2022-12-18T10:40:18;-0.20;49.40
6098;DHT22;3077;50.922;6.584;2022-12-18T10:42:44;-0.20;1.00
6098;DHT22;3077;50.922;6.584;2022-12-18T10:45:13;-0.20;1.00
6098;DHT22;3077;50.922;6.584;2022-12-18T10:47:44;-0.20;1.00
6098;DHT22;3077;50.922;6.584;2022-12-18T10:52:59;0.00;1.00
6098;DHT22;3077;50.922;6.584;2022-12-18T10:55:34;0.00;99.90
6098;DHT22;3077;50.922;6.584;2022-12-18T11:01:16;0.10;99.90
6098;DHT22;3077;50.922;6.584;2022-12-18T11:03:58;0.10;99.90
6098;DHT22;3077;50.922;6.584;2022-12-18T11:06:25;0.20;99.90
6098;DHT22;3077;50.922;6.584;2022-12-18T11:11:32;0.30;51.10
6098;DHT22;3077;50.922;6.584;2022-12-18T11:14:06;-0.20;99.90
6098;DHT22;3077;50.922;6.584;2022-12-18T11:16:43;0.10;1.00
6098;DHT22;3077;50.922;6.584;2022-12-18T11:19:34;0.40;99.90
6098;DHT22;3077;50.922;6.584;2022-12-18T11:22:01;2.20;1.00
6098;DHT22;3077;50.922;6.584;2022-12-18T11:24:31;-0.20;1.00
6098;DHT22;3077;50.922;6.584;2022-12-18T11:27:00;0.30;1.00
6098;DHT22;3077;50.922;6.584;2022-12-18T11:29:37;0.20;1.00
6098;DHT22;3077;50.922;6.584;2022-12-18T11:32:35;0.20;1.00
6098;DHT22;3077;50.922;6.584;2022-12-18T11:35:14;0.20;99.90
6098;DHT22;3077;50.922;6.584;2022-12-18T11:37:43;0.30;1.00
6098;DHT22;3077;50.922;6.584;2022-12-18T11:40:17;0.10;99.90
6098;DHT22;3077;50.922;6.584;2022-12-18T11:42:50;0.10;1.00
6098;DHT22;3077;50.922;6.584;2022-12-18T11:45:28;0.20;1.00
6098;DHT22;3077;50.922;6.584;2022-12-18T11:50:56;0.20;1.00
6098;DHT22;3077;50.922;6.584;2022-12-18T11:53:22;0.20;1.00
6098;DHT22;3077;50.922;6.584;2022-12-18T11:56:02;0.40;1.00
6098;DHT22;3077;50.922;6.584;2022-12-18T11:58:49;0.30;87.20
6098;DHT22;3077;50.922;6.584;2022-12-18T12:09:59;0.30;1.00
6098;DHT22;3077;50.922;6.584;2022-12-18T12:12:47;0.20;1.00
6098;DHT22;3077;50.922;6.584;2022-12-18T12:26:29;0.70;1.00
6098;DHT22;3077;50.922;6.584;2022-12-18T12:34:36;0.40;1.00
6098;DHT22;3077;50.922;6.584;2022-12-18T12:37:28;1.10;1.00
6098;DHT22;3077;50.922;6.584;2022-12-18T12:40:00;0.30;1.00
6098;DHT22;3077;50.922;6.584;2022-12-18T12:42:38;0.20;1.00
6098;DHT22;3077;50.922;6.584;2022-12-18T12:45:37;0.40;1.00
6098;DHT22;3077;50.922;6.584;2022-12-18T12:48:09;0.40;1.00
6098;DHT22;3077;50.922;6.584;2022-12-18T12:50:40;0.70;1.00
6098;DHT22;3077;50.922;6.584;2022-12-18T12:53:08;0.10;99.90
6098;DHT22;3077;50.922;6.584;2022-12-18T12:55:34;0.40;99.90
6098;DHT22;3077;50.922;6.584;2022-12-18T13:04:17;0.20;1.00
6098;DHT22;3077;50.922;6.584;2022-12-18T13:20:44;-0.40;99.90
6098;DHT22;3077;50.922;6.584;2022-12-18T13:31:12;-0.10;99.90
6098;DHT22;3077;50.922;6.584;2022-12-18T13:33:44;0.00;99.90
6098;DHT22;3077;50.922;6.584;2022-12-18T13:41:41;-0.80;1.00
6098;DHT22;3077;50.922;6.584;2022-12-18T13:44:32;-0.10;99.90
6098;DHT22;3077;50.922;6.584;2022-12-18T13:46:59;-0.10;99.90
6098;DHT22;3077;50.922;6.584;2022-12-18T13:49:38;-0.50;99.90
6098;DHT22;3077;50.922;6.584;2022-12-18T13:52:20;-0.20;99.90
6098;DHT22;3077;50.922;6.584;2022-12-18T13:54:51;-0.20;99.90
6098;DHT22;3077;50.922;6.584;2022-12-18T13:57:30;-0.20;99.90
6098;DHT22;3077;50.922;6.584;2022-12-18T13:59:57;-0.50;99.90
6098;DHT22;3077;50.922;6.584;2022-12-18T14:02:25;-0.30;1.00
6098;DHT22;3077;50.922;6.584;2022-12-18T14:04:52;-0.30;99.90
6098;DHT22;3077;50.922;6.584;2022-12-18T14:07:22;-0.30;1.00
6098;DHT22;3077;50.922;6.584;2022-12-18T14:09:50;-0.30;99.90
6098;DHT22;3077;50.922;6.584;2022-12-18T14:12:33;0.00;1.00
6098;DHT22;3077;50.922;6.584;2022-12-18T14:15:33;-0.30;99.90
6098;DHT22;3077;50.922;6.584;2022-12-18T14:18:01;-0.30;1.00
6098;DHT22;3077;50.922;6.584;2022-12-18T14:20:30;-0.30;1.00
6098;DHT22;3077;50.922;6.584;2022-12-18T14:22:57;-0.40;1.00
6098;DHT22;3077;50.922;6.584;2022-12-18T14:25:25;-0.40;1.00
6098;DHT22;3077;50.922;6.584;2022-12-18T14:27:57;-0.40;1.00
6098;DHT22;3077;50.922;6.584;2022-12-18T14:30:33;-0.70;99.90
6098;DHT22;3077;50.922;6.584;2022-12-18T14:35:35;-0.50;99.90
6098;DHT22;3077;50.922;6.584;2022-12-18T14:40:42;-0.40;99.90
6098;DHT22;3077;50.922;6.584;2022-12-18T14:43:11;-0.90;49.30
6098;DHT22;3077;50.922;6.584;2022-12-18T14:45:41;-0.60;99.90
6098;DHT22;3077;50.922;6.584;2022-12-18T14:50:41;-0.60;99.90
6098;DHT22;3077;50.922;6.584;2022-12-18T14:53:53;-0.70;99.90
6098;DHT22;3077;50.922;6.584;2022-12-18T14:56:29;-0.70;99.90
6098;DHT22;3077;50.922;6.584;2022-12-18T14:59:00;-1.10;99.90
6098;DHT22;3077;50.922;6.584;2022-12-18T15:01:29;-0.70;99.90
6098;DHT22;3077;50.922;6.584;2022-12-18T15:03:57;-0.80;1.00
6098;DHT22;3077;50.922;6.584;2022-12-18T15:06:28;-0.80;1.00
6098;DHT22;3077;50.922;6.584;2022-12-18T15:08:56;-0.70;1.00
6098;DHT22;3077;50.922;6.584;2022-12-18T15:11:43;-0.70;1.00
6098;DHT22;3077;50.922;6.584;2022-12-18T15:14:39;-0.80;1.00
6098;DHT22;3077;50.922;6.584;2022-12-18T15:17:19;-0.80;1.00
6098;DHT22;3077;50.922;6.584;2022-12-18T15:19:48;-0.70;99.90
6098;DHT22;3077;50.922;6.584;2022-12-18T15:22:26;-0.80;29.20
6098;DHT22;3077;50.922;6.584;2022-12-18T15:24:54;-0.90;99.90
6098;DHT22;3077;50.922;6.584;2022-12-18T15:32:33;-1.20;99.90
6098;DHT22;3077;50.922;6.584;2022-12-18T15:37:34;-0.90;89.90
6098;DHT22;3077;50.922;6.584;2022-12-18T15:42:27;-0.90;1.00
6098;DHT22;3077;50.922;6.584;2022-12-18T15:45:12;-0.90;1.00
6098;DHT22;3077;50.922;6.584;2022-12-18T15:47:38;-1.00;1.00
6098;DHT22;3077;50.922;6.584;2022-12-18T15:50:04;-0.90;81.40
6098;DHT22;3077;50.922;6.584;2022-12-18T15:52:31;-0.90;99.90
6098;DHT22;3077;50.922;6.584;2022-12-18T15:55:00;-1.00;85.40
6098;DHT22;3077;50.922;6.584;2022-12-18T15:57:44;-0.80;99.90
6098;DHT22;3077;50.922;6.584;2022-12-18T16:00:12;-1.20;99.90
6098;DHT22;3077;50.922;6.584;2022-12-18T16:02:38;-1.10;1.00
6098;DHT22;3077;50.922;6.584;2022-12-18T16:05:13;-1.10;99.90
6098;DHT22;3077;50.922;6.584;2022-12-18T16:07:39;-1.00;99.90
6098;DHT22;3077;50.922;6.584;2022-12-18T16:22:21;-1.00;99.90
6098;DHT22;3077;50.922;6.584;2022-12-18T16:24:47;-1.40;99.90
6098;DHT22;3077;50.922;6.584;2022-12-18T16:27:13;-0.90;99.90
6098;DHT22;3077;50.922;6.584;2022-12-18T16:29:39;-0.80;1.00
6098;DHT22;3077;50.922;6.584;2022-12-18T16:32:04;-0.80;91.80
6098;DHT22;3077;50.922;6.584;2022-12-18T16:34:32;-0.90;1.00
6098;DHT22;3077;50.922;6.584;2022-12-18T16:37:01;-0.80;1.00
6098;DHT22;3077;50.922;6.584;2022-12-18T16:41:55;-0.80;99.90
6098;DHT22;3077;50.922;6.584;2022-12-18T16:49:17;-0.70;16.40
6098;DHT22;3077;50.922;6.584;2022-12-18T16:51:45;-0.70;38.60
6098;DHT22;3077;50.922;6.584;2022-12-18T16:54:11;-0.80;99.90
6098;DHT22;3077;50.922;6.584;2022-12-18T16:59:03;-0.60;99.90
6098;DHT22;3077;50.922;6.584;2022-12-18T17:01:30;-0.60;1.00
6098;DHT22;3077;50.922;6.584;2022-12-18T17:03:59;-0.60;9.90
6098;DHT22;3077;50.922;6.584;2022-12-18T17:06:27;-0.70;1.00
6098;DHT22;3077;50.922;6.584;2022-12-18T17:09:01;-0.60;99.90
6098;DHT22;3077;50.922;6.584;2022-12-18T17:11:29;-1.10;99.90
6098;DHT22;3077;50.922;6.584;2022-12-18T17:18:48;-0.60;1.00
6098;DHT22;3077;50.922;6.584;2022-12-18T17:21:14;-1.40;1.00
6098;DHT22;3077;50.922;6.584;2022-12-18T17:23:41;-0.70;1.00
6098;DHT22;3077;50.922;6.584;2022-12-18T17:26:08;-0.70;99.90
6098;DHT22;3077;50.922;6.584;2022-12-18T17:28:35;-0.60;99.90
6098;DHT22;3077;50.922;6.584;2022-12-18T17:35:57;-0.80;75.60
6098;DHT22;3077;50.922;6.584;2022-12-18T17:38:23;-0.70;99.90
6098;DHT22;3077;50.922;6.584;2022-12-18T17:43:14;-1.00;1.00
6098;DHT22;3077;50.922;6.584;2022-12-18T17:48:07;-0.90;1.00
6098;DHT22;3077;50.922;6.584;2022-12-18T17:53:00;-0.70;54.40
6098;DHT22;3077;50.922;6.584;2022-12-18T17:57:53;-0.70;1.00
6098;DHT22;3077;50.922;6.584;2022-12-18T18:00:19;-0.70;1.00
6098;DHT22;3077;50.922;6.584;2022-12-18T18:02:45;-0.70;99.90
6098;DHT22;3077;50.922;6.584;2022-12-18T18:07:38;-0.70;1.00
6098;DHT22;3077;50.922;6.584;2022-12-18T18:10:04;-0.60;99.90
6098;DHT22;3077;50.922;6.584;2022-12-18T18:17:41;-1.20;99.90
6098;DHT22;3077;50.922;6.584;2022-12-18T18:20:07;-0.60;99.90
6098;DHT22;3077;50.922;6.584;2022-12-18T18:27:26;-0.50;99.90
6098;DHT22;3077;50.922;6.584;2022-12-18T18:37:10;-0.20;99.90
6098;DHT22;3077;50.922;6.584;2022-12-18T18:39:36;-0.40;99.90
6098;DHT22;3077;50.922;6.584;2022-12-18T18:44:28;-0.40;99.90
6098;DHT22;3077;50.922;6.584;2022-12-18T18:46:55;-0.50;1.00
6098;DHT22;3077;50.922;6.584;2022-12-18T18:49:22;-0.20;1.00
6098;DHT22;3077;50.922;6.584;2022-12-18T18:51:49;-0.40;99.90
6098;DHT22;3077;50.922;6.584;2022-12-18T18:54:15;-0.30;99.90
6098;DHT22;3077;50.922;6.584;2022-12-18T18:56:40;-0.40;99.90
6098;DHT22;3077;50.922;6.584;2022-12-18T19:06:26;-0.50;99.90
6098;DHT22;3077;50.922;6.584;2022-12-18T19:08:53;-0.50;99.90
6098;DHT22;3077;50.922;6.584;2022-12-18T19:11:20;-0.50;1.00
6098;DHT22;3077;50.922;6.584;2022-12-18T19:14:06;-0.50;99.90
6098;DHT22;3077;50.922;6.584;2022-12-18T19:16:33;-0.50;99.90
6098;DHT22;3077;50.922;6.584;2022-12-18T19:21:25;-0.60;9.80
6098;DHT22;3077;50.922;6.584;2022-12-18T19:26:17;-0.70;58.30
6098;DHT22;3077;50.922;6.584;2022-12-18T19:28:43;-1.10;99.90
6098;DHT22;3077;50.922;6.584;2022-12-18T19:31:11;-0.70;99.90
6098;DHT22;3077;50.922;6.584;2022-12-18T19:33:39;-0.70;99.90
6098;DHT22;3077;50.922;6.584;2022-12-18T19:36:19;-0.80;1.00
6098;DHT22;3077;50.922;6.584;2022-12-18T19:38:46;-0.80;99.90
6098;DHT22;3077;50.922;6.584;2022-12-18T19:41:12;-0.80;99.90
6098;DHT22;3077;50.922;6.584;2022-12-18T19:43:39;-0.80;1.00
6098;DHT22;3077;50.922;6.584;2022-12-18T19:46:06;-0.60;1.00
6098;DHT22;3077;50.922;6.584;2022-12-18T19:48:33;-0.80;1.00
6098;DHT22;3077;50.922;6.584;2022-12-18T19:51:07;-0.80;99.90
6098;DHT22;3077;50.922;6.584;2022-12-18T19:53:33;-0.80;99.90
6098;DHT22;3077;50.922;6.584;2022-12-18T19:56:07;-0.80;99.90
6098;DHT22;3077;50.922;6.584;2022-12-18T19:58:33;-0.70;1.00
6098;DHT22;3077;50.922;6.584;2022-12-18T20:03:25;-0.70;1.00
6098;DHT22;3077;50.922;6.584;2022-12-18T20:05:51;-0.70;1.00
6098;DHT22;3077;50.922;6.584;2022-12-18T20:10:42;-1.00;1.00
6098;DHT22;3077;50.922;6.584;2022-12-18T20:13:16;-0.60;1.00
6098;DHT22;3077;50.922;6.584;2022-12-18T20:15:41;-0.60;99.90
6098;DHT22;3077;50.922;6.584;2022-12-18T20:18:08;-0.70;71.40
6098;DHT22;3077;50.922;6.584;2022-12-18T20:23:00;-0.60;1.00
6098;DHT22;3077;50.922;6.584;2022-12-18T20:27:53;-0.60;99.90
6098;DHT22;3077;50.922;6.584;2022-12-18T20:30:18;-0.70;99.90
6098;DHT22;3077;50.922;6.584;2022-12-18T20:37:36;-0.40;99.90
6098;DHT22;3077;50.922;6.584;2022-12-18T20:42:27;-0.50;99.90
6098;DHT22;3077;50.922;6.584;2022-12-18T20:47:19;-0.50;10.10
6098;DHT22;3077;50.922;6.584;2022-12-18T20:59:29;-0.50;1.00
6098;DHT22;3077;50.922;6.584;2022-12-18T21:04:21;-0.50;1.00
6098;DHT22;3077;50.922;6.584;2022-12-18T21:06:48;-0.30;99.90
6098;DHT22;3077;50.922;6.584;2022-12-18T21:09:14;-0.40;1.00
6098;DHT22;3077;50.922;6.584;2022-12-18T21:14:27;-0.30;99.90
6098;DHT22;3077;50.922;6.584;2022-12-18T21:16:53;-0.30;1.00
6098;DHT22;3077;50.922;6.584;2022-12-18T21:19:21;-0.20;14.80
6098;DHT22;3077;50.922;6.584;2022-12-18T21:21:50;-0.30;1.00
6098;DHT22;3077;50.922;6.584;2022-12-18T21:24:17;-0.20;99.90
6098;DHT22;3077;50.922;6.584;2022-12-18T21:26:44;-0.20;99.90
6098;DHT22;3077;50.922;6.584;2022-12-18T21:29:12;-0.20;99.90
6098;DHT22;3077;50.922;6.584;2022-12-18T21:31:39;-0.20;99.90
6098;DHT22;3077;50.922;6.584;2022-12-18T21:34:06;-0.20;99.90
6098;DHT22;3077;50.922;6.584;2022-12-18T21:36:32;-0.20;1.00
6098;DHT22;3077;50.922;6.584;2022-12-18T21:44:12;-0.10;1.00
6098;DHT22;3077;50.922;6.584;2022-12-18T21:46:39;0.00;1.00
6098;DHT22;3077;50.922;6.584;2022-12-18T21:49:06;0.00;1.00
6098;DHT22;3077;50.922;6.584;2022-12-18T21:51:33;0.20;1.00
6098;DHT22;3077;50.922;6.584;2022-12-18T21:53:59;-0.10;1.00
6098;DHT22;3077;50.922;6.584;2022-12-18T21:59:25;-0.10;1.00
6098;DHT22;3077;50.922;6.584;2022-12-18T22:01:53;-0.10;1.00
6098;DHT22;3077;50.922;6.584;2022-12-18T22:04:20;0.20;1.00
6098;DHT22;3077;50.922;6.584;2022-12-18T22:06:46;-0.30;1.00
6098;DHT22;3077;50.922;6.584;2022-12-18T22:09:14;-0.30;1.00
6098;DHT22;3077;50.922;6.584;2022-12-18T22:11:40;0.00;1.00
6098;DHT22;3077;50.922;6.584;2022-12-18T22:14:06;0.50;1.00
6098;DHT22;3077;50.922;6.584;2022-12-18T22:16:33;0.10;1.00
6098;DHT22;3077;50.922;6.584;2022-12-18T22:18:58;0.10;1.00
6098;DHT22;3077;50.922;6.584;2022-12-18T22:21:26;0.20;4.10
6098;DHT22;3077;50.922;6.584;2022-12-18T22:23:56;0.30;6.50
6098;DHT22;3077;50.922;6.584;2022-12-18T22:26:23;0.20;9.80
6098;DHT22;3077;50.922;6.584;2022-12-18T22:31:34;0.30;12.60
6098;DHT22;3077;50.922;6.584;2022-12-18T22:34:00;0.30;15.40
6098;DHT22;3077;50.922;6.584;2022-12-18T22:38:52;0.60;7.40
6098;DHT22;3077;50.922;6.584;2022-12-18T22:46:14;0.30;1.00
6098;DHT22;3077;50.922;6.584;2022-12-18T22:56:01;0.30;1.00
6098;DHT22;3077;50.922;6.584;2022-12-18T22:58:27;0.00;13.20
6098;DHT22;3077;50.922;6.584;2022-12-18T23:08:12;0.30;36.80
6098;DHT22;3077;50.922;6.584;2022-12-18T23:10:37;0.40;36.10
6098;DHT22;3077;50.922;6.584;2022-12-18T23:15:29;0.40;28.80
6098;DHT22;3077;50.922;6.584;2022-12-18T23:17:56;0.50;8.40
6098;DHT22;3077;50.922;6.584;2022-12-18T23:20:22;0.50;43.30
6098;DHT22;3077;50.922;6.584;2022-12-18T23:22:48;0.40;48.90
6098;DHT22;3077;50.922;6.584;2022-12-18T23:25:13;0.50;50.70
6098;DHT22;3077;50.922;6.584;2022-12-18T23:30:05;0.60;30.00
6098;DHT22;3077;50.922;6.584;2022-12-18T23:32:35;0.50;49.00
6098;DHT22;3077;50.922;6.584;2022-12-18T23:35:02;0.40;55.30
6098;DHT22;3077;50.922;6.584;2022-12-18T23:37:27;0.50;64.60
6098;DHT22;3077;50.922;6.584;2022-12-18T23:52:03;0.70;84.10
6098;DHT22;3077;50.922;6.584;2022-12-18T23:54:28;0.70;86.00
6098;DHT22;3077;50.922;6.584;2022-12-18T23:56:54;0.70;87.80
